Time;durP1;ratioP1;P1;durP2;ratioP2;P2;SDS_P1;SDS_P2;PMS_P1;PMS_P2;Temp;Humidity;BMP_temperature;BMP_pressure;BME280_temperature;BME280_humidity;BME280_pressure;Samples;Min_cycle;Max_cycle;Signal;HPM_P1;HPM_P2
2023/12/22 00:00:02;;;;;;;7.28;1.65;;;;;;;;;;5067431;28;41891;-80
2023/12/22 00:02:31;;;;;;;4.90;1.23;;;;;;;;;;5068547;28;43193;-77
2023/12/22 00:04:59;;;;;;;4.18;1.48;;;;;;;;;;5052159;28;42368;-81
2023/12/22 00:07:28;;;;;;;8.10;1.55;;;;;;;;;;5067963;28;41386;-76
2023/12/22 00:09:56;;;;;;;6.18;1.58;;;;;;;;;;5071647;28;42923;-76
2023/12/22 00:12:25;;;;;;;5.55;1.73;;;;;;;;;;5063901;28;40738;-78
2023/12/22 00:14:53;;;;;;;7.85;1.65;;;;;;;;;;5059747;28;41826;-77
2023/12/22 00:17:21;;;;;;;6.57;1.60;;;;;;;;;;5067800;28;42291;-77
2023/12/22 00:19:49;;;;;;;5.03;1.67;;;;;;;;;;5067932;28;42567;-80
2023/12/22 00:22:17;;;;;;;4.72;1.65;;;;;;;;;;5066029;28;41749;-76
2023/12/22 00:24:45;;;;;;;6.47;1.67;;;;;;;;;;5068189;28;41265;-80
2023/12/22 00:27:13;;;;;;;5.82;1.52;;;;;;;;;;5056366;28;41452;-82
2023/12/22 00:29:42;;;;;;;4.68;1.35;;;;;;;;;;5051264;28;41655;-76
2023/12/22 00:32:10;;;;;;;4.32;1.40;;;;;;;;;;5067166;28;41179;-79
2023/12/22 00:34:38;;;;;;;6.13;1.80;;;;;;;;;;5067413;28;41075;-80
2023/12/22 00:37:06;;;;;;;6.55;1.50;;;;;;;;;;5060697;28;41840;-80
2023/12/22 00:39:34;;;;;;;5.22;1.30;;;;;;;;;;5068445;28;41105;-79
2023/12/22 00:42:04;;;;;;;4.40;1.83;;;;;;;;;;5060856;28;42865;-78
2023/12/22 00:44:32;;;;;;;6.97;1.40;;;;;;;;;;5062991;28;41610;-77
2023/12/22 00:47:01;;;;;;;3.75;1.38;;;;;;;;;;5063314;28;41711;-77
2023/12/22 00:49:29;;;;;;;5.90;1.90;;;;;;;;;;5064584;28;41693;-76
2023/12/22 00:51:57;;;;;;;3.97;1.42;;;;;;;;;;5066935;28;40936;-78
2023/12/22 00:54:25;;;;;;;4.20;1.50;;;;;;;;;;5064329;28;41175;-78
2023/12/22 00:56:53;;;;;;;6.32;1.50;;;;;;;;;;5066834;28;41528;-78
2023/12/22 00:59:21;;;;;;;3.67;1.60;;;;;;;;;;5067473;28;41836;-78
2023/12/22 01:01:49;;;;;;;8.23;1.77;;;;;;;;;;5064294;28;43413;-77
2023/12/22 01:04:19;;;;;;;8.55;1.80;;;;;;;;;;5066994;28;41219;-77
2023/12/22 01:06:47;;;;;;;4.75;1.90;;;;;;;;;;5054073;28;42304;-77
2023/12/22 01:09:15;;;;;;;5.60;1.73;;;;;;;;;;5064424;28;42478;-77
2023/12/22 01:11:43;;;;;;;5.60;1.45;;;;;;;;;;5064527;28;39516;-77
2023/12/22 01:14:13;;;;;;;5.28;1.63;;;;;;;;;;5064948;28;41498;-77
2023/12/22 01:16:41;;;;;;;6.70;1.70;;;;;;;;;;5066003;28;43090;-77
2023/12/22 01:19:09;;;;;;;4.88;1.33;;;;;;;;;;5067151;28;42241;-77
2023/12/22 01:21:38;;;;;;;6.15;1.60;;;;;;;;;;5067364;28;42192;-78
2023/12/22 01:24:06;;;;;;;5.97;1.20;;;;;;;;;;5066522;28;41718;-77
2023/12/22 01:26:34;;;;;;;6.32;1.42;;;;;;;;;;5068158;28;42428;-78
2023/12/22 01:29:02;;;;;;;5.55;1.48;;;;;;;;;;5053223;28;42385;-77
2023/12/22 01:31:30;;;;;;;5.75;1.50;;;;;;;;;;5066374;28;41924;-77
2023/12/22 01:33:58;;;;;;;4.03;1.02;;;;;;;;;;5066078;28;41898;-77
2023/12/22 01:36:26;;;;;;;4.55;1.40;;;;;;;;;;5065041;28;41798;-77
2023/12/22 01:38:56;;;;;;;6.72;1.70;;;;;;;;;;5064918;28;41068;-77
2023/12/22 01:41:24;;;;;;;4.90;1.33;;;;;;;;;;5071719;28;41651;-77
2023/12/22 01:43:52;;;;;;;3.10;1.08;;;;;;;;;;5067062;28;42423;-77
2023/12/22 01:46:20;;;;;;;5.10;1.10;;;;;;;;;;5064481;28;44306;-77
2023/12/22 01:48:48;;;;;;;4.20;1.15;;;;;;;;;;5066859;28;42938;-78
2023/12/22 01:51:17;;;;;;;4.93;1.40;;;;;;;;;;5065514;28;40924;-77
2023/12/22 01:53:45;;;;;;;5.50;1.58;;;;;;;;;;5054567;28;41279;-77
2023/12/22 01:56:14;;;;;;;3.15;1.00;;;;;;;;;;5066933;28;42064;-77
2023/12/22 01:58:42;;;;;;;7.03;1.17;;;;;;;;;;5075220;28;41385;-76
2023/12/22 02:01:19;;;;;;;3.33;0.90;;;;;;;;;;5050496;28;41983;-77
2023/12/22 02:03:47;;;;;;;6.88;1.25;;;;;;;;;;5066781;28;41389;-77
2023/12/22 02:06:16;;;;;;;4.57;1.17;;;;;;;;;;5051756;28;41278;-77
2023/12/22 02:08:44;;;;;;;4.93;1.10;;;;;;;;;;5063345;28;41753;-77
2023/12/22 02:11:12;;;;;;;3.85;1.10;;;;;;;;;;5063822;28;41935;-77
2023/12/22 02:13:41;;;;;;;7.53;1.60;;;;;;;;;;5064429;28;42660;-77
2023/12/22 02:16:12;;;;;;;2.45;0.98;;;;;;;;;;5064923;28;20320;-78
2023/12/22 02:18:41;;;;;;;2.72;1.38;;;;;;;;;;5069459;28;41993;-77
2023/12/22 02:21:09;;;;;;;2.63;0.88;;;;;;;;;;5086891;28;41833;-77
2023/12/22 02:23:38;;;;;;;6.55;1.15;;;;;;;;;;5069193;28;42097;-77
2023/12/22 02:26:07;;;;;;;5.38;1.10;;;;;;;;;;5076087;28;41954;-77
2023/12/22 02:28:35;;;;;;;3.22;1.15;;;;;;;;;;5085031;28;41644;-77
2023/12/22 02:31:03;;;;;;;4.25;0.80;;;;;;;;;;5066860;28;40710;-77
2023/12/22 02:33:31;;;;;;;2.88;1.15;;;;;;;;;;5066521;28;42600;-77
2023/12/22 02:36:00;;;;;;;3.97;1.00;;;;;;;;;;5066437;28;42588;-77
2023/12/22 02:38:28;;;;;;;3.03;1.00;;;;;;;;;;5067469;28;41061;-77
2023/12/22 02:40:57;;;;;;;3.13;0.80;;;;;;;;;;5052475;28;41821;-77
2023/12/22 02:43:25;;;;;;;3.75;0.70;;;;;;;;;;5066764;28;43232;-78
2023/12/22 02:45:53;;;;;;;3.58;1.20;;;;;;;;;;5061848;28;41103;-78
2023/12/22 02:48:21;;;;;;;3.42;0.73;;;;;;;;;;5055151;28;41372;-77
2023/12/22 02:50:50;;;;;;;3.00;0.98;;;;;;;;;;5065568;28;43113;-78
2023/12/22 02:53:17;;;;;;;4.80;1.00;;;;;;;;;;5062698;28;42200;-77
2023/12/22 02:55:45;;;;;;;3.38;0.80;;;;;;;;;;5064433;28;41580;-77
2023/12/22 02:58:15;;;;;;;5.63;0.80;;;;;;;;;;5059863;28;41994;-77
2023/12/22 03:00:43;;;;;;;4.80;0.93;;;;;;;;;;5063565;28;42175;-77
2023/12/22 03:03:11;;;;;;;5.45;1.55;;;;;;;;;;5053024;28;41609;-78
2023/12/22 03:05:39;;;;;;;3.50;1.00;;;;;;;;;;5064084;28;41490;-77
2023/12/22 03:08:07;;;;;;;2.17;0.80;;;;;;;;;;5063822;28;43373;-77
2023/12/22 03:10:35;;;;;;;3.95;0.85;;;;;;;;;;5065248;28;43634;-77
2023/12/22 03:13:02;;;;;;;4.22;1.00;;;;;;;;;;5065091;28;42413;-77
2023/12/22 03:15:31;;;;;;;3.05;0.90;;;;;;;;;;5065731;28;42185;-77
2023/12/22 03:17:59;;;;;;;3.10;0.93;;;;;;;;;;5066322;28;42347;-77
2023/12/22 03:20:27;;;;;;;1.30;0.68;;;;;;;;;;5067898;28;41248;-78
2023/12/22 03:22:55;;;;;;;4.38;1.08;;;;;;;;;;5069144;28;42298;-77
2023/12/22 03:25:24;;;;;;;2.92;0.73;;;;;;;;;;5073435;28;41783;-78
2023/12/22 03:27:52;;;;;;;3.08;0.80;;;;;;;;;;5079702;28;42399;-78
2023/12/22 03:30:20;;;;;;;2.92;0.93;;;;;;;;;;5068788;28;42441;-78
2023/12/22 03:32:49;;;;;;;3.25;1.17;;;;;;;;;;5070034;28;42360;-78
2023/12/22 03:35:17;;;;;;;4.53;1.10;;;;;;;;;;5069147;28;41724;-78
2023/12/22 03:37:45;;;;;;;3.47;0.95;;;;;;;;;;5068928;28;41163;-78
2023/12/22 03:40:14;;;;;;;3.55;1.10;;;;;;;;;;5069278;28;42099;-78
2023/12/22 03:42:42;;;;;;;2.92;0.85;;;;;;;;;;5063859;28;41558;-78
2023/12/22 03:45:10;;;;;;;3.65;0.77;;;;;;;;;;5061534;28;40717;-77
2023/12/22 03:47:38;;;;;;;3.50;1.08;;;;;;;;;;5064493;28;42315;-77
2023/12/22 03:50:08;;;;;;;2.83;0.85;;;;;;;;;;5064069;28;41541;-78
2023/12/22 03:52:36;;;;;;;4.43;1.00;;;;;;;;;;5054623;28;42170;-77
2023/12/22 03:55:04;;;;;;;6.47;1.42;;;;;;;;;;5059454;28;41360;-77
2023/12/22 03:57:32;;;;;;;2.50;0.82;;;;;;;;;;5063241;28;41202;-78
2023/12/22 04:00:00;;;;;;;4.18;1.00;;;;;;;;;;5054689;28;42703;-78
2023/12/22 04:02:30;;;;;;;2.33;0.98;;;;;;;;;;5067796;28;42189;-77
2023/12/22 04:04:58;;;;;;;3.00;0.80;;;;;;;;;;5062119;28;41349;-78
2023/12/22 04:07:28;;;;;;;2.95;0.68;;;;;;;;;;5067624;28;42510;-77
2023/12/22 04:09:56;;;;;;;3.28;0.70;;;;;;;;;;5066438;28;42093;-77
2023/12/22 04:12:24;;;;;;;5.05;0.80;;;;;;;;;;5057318;28;41219;-77
2023/12/22 04:14:53;;;;;;;3.85;0.80;;;;;;;;;;5066907;28;41091;-77
2023/12/22 04:17:21;;;;;;;3.67;1.10;;;;;;;;;;5068075;28;42113;-77
2023/12/22 04:19:49;;;;;;;3.55;0.80;;;;;;;;;;5082121;28;42358;-77
2023/12/22 04:22:17;;;;;;;3.58;0.73;;;;;;;;;;5037528;28;41326;-78
2023/12/22 04:24:47;;;;;;;1.38;0.50;;;;;;;;;;5068898;28;42109;-78
2023/12/22 04:27:15;;;;;;;2.22;0.70;;;;;;;;;;5068125;28;42243;-77
2023/12/22 04:29:43;;;;;;;2.88;0.70;;;;;;;;;;5060831;28;43189;-77
2023/12/22 04:32:10;;;;;;;1.90;0.85;;;;;;;;;;5063359;28;41118;-77
2023/12/22 04:34:38;;;;;;;3.60;0.88;;;;;;;;;;5068075;28;41579;-77
2023/12/22 04:37:06;;;;;;;3.03;0.98;;;;;;;;;;5068529;28;42638;-77
2023/12/22 04:39:34;;;;;;;2.47;0.80;;;;;;;;;;5068056;28;42349;-77
2023/12/22 04:42:04;;;;;;;2.92;0.77;;;;;;;;;;5068279;28;41859;-77
2023/12/22 04:44:32;;;;;;;2.30;0.73;;;;;;;;;;5072456;28;42035;-77
2023/12/22 04:47:00;;;;;;;4.00;0.90;;;;;;;;;;5075006;28;41355;-77
2023/12/22 04:49:28;;;;;;;2.78;0.95;;;;;;;;;;5068118;28;42831;-77
2023/12/22 04:51:56;;;;;;;2.17;0.85;;;;;;;;;;5068575;28;40890;-77
2023/12/22 04:54:27;;;;;;;4.95;1.02;;;;;;;;;;5064622;28;41276;-77
2023/12/22 04:56:55;;;;;;;2.83;0.73;;;;;;;;;;5068677;28;41869;-77
2023/12/22 04:59:24;;;;;;;1.98;0.52;;;;;;;;;;5067611;28;41187;-77
2023/12/22 05:01:52;;;;;;;3.53;1.05;;;;;;;;;;5068248;28;41277;-78
2023/12/22 05:04:21;;;;;;;3.45;1.05;;;;;;;;;;5067848;28;41507;-77
2023/12/22 05:06:49;;;;;;;1.63;0.65;;;;;;;;;;5067681;28;41442;-77
2023/12/22 05:09:17;;;;;;;2.13;0.80;;;;;;;;;;5063746;28;42452;-77
2023/12/22 05:11:45;;;;;;;2.38;0.75;;;;;;;;;;5068143;28;41134;-77
2023/12/22 05:14:13;;;;;;;2.85;1.00;;;;;;;;;;5067626;28;42480;-77
2023/12/22 05:16:42;;;;;;;3.10;0.82;;;;;;;;;;5067146;28;42336;-77
2023/12/22 05:19:10;;;;;;;2.28;0.70;;;;;;;;;;5067852;28;41277;-78
2023/12/22 05:21:38;;;;;;;5.07;1.27;;;;;;;;;;5067565;28;41519;-77
2023/12/22 05:24:06;;;;;;;2.80;0.85;;;;;;;;;;5067827;28;42296;-77
2023/12/22 05:26:34;;;;;;;2.25;0.70;;;;;;;;;;5067984;28;42607;-77
2023/12/22 05:29:02;;;;;;;5.15;1.27;;;;;;;;;;5056872;28;42848;-77
2023/12/22 05:31:32;;;;;;;4.30;1.00;;;;;;;;;;5063237;28;40806;-77
2023/12/22 05:34:02;;;;;;;5.32;0.80;;;;;;;;;;5067811;28;41614;-77
2023/12/22 05:36:30;;;;;;;2.17;0.80;;;;;;;;;;5048376;28;42627;-77
2023/12/22 05:38:58;;;;;;;2.30;0.65;;;;;;;;;;5067571;28;42209;-77
2023/12/22 05:41:26;;;;;;;3.55;0.70;;;;;;;;;;5067850;28;41465;-77
2023/12/22 05:43:54;;;;;;;2.30;0.68;;;;;;;;;;5066175;28;42790;-77
2023/12/22 05:46:22;;;;;;;2.90;0.68;;;;;;;;;;5067292;28;41672;-77
2023/12/22 05:48:50;;;;;;;2.85;1.10;;;;;;;;;;5048546;28;41334;-77
2023/12/22 05:51:22;;;;;;;3.13;1.00;;;;;;;;;;5065679;28;41316;-77
2023/12/22 05:53:50;;;;;;;2.45;0.80;;;;;;;;;;5064818;28;41672;-77
2023/12/22 05:56:19;;;;;;;1.85;0.80;;;;;;;;;;5061527;28;42034;-77
2023/12/22 05:58:47;;;;;;;4.35;1.00;;;;;;;;;;5058763;28;40637;-77
2023/12/22 06:01:16;;;;;;;3.13;1.10;;;;;;;;;;5052431;28;41747;-78
2023/12/22 06:03:44;;;;;;;3.92;1.33;;;;;;;;;;5057392;28;42148;-77
2023/12/22 06:06:11;;;;;;;4.53;1.48;;;;;;;;;;5053252;28;42275;-77
2023/12/22 06:08:41;;;;;;;2.63;1.13;;;;;;;;;;5066931;28;41652;-77
2023/12/22 06:11:09;;;;;;;2.50;0.95;;;;;;;;;;5048007;28;40257;-77
2023/12/22 06:13:37;;;;;;;3.72;1.00;;;;;;;;;;5067304;28;41723;-77
2023/12/22 06:16:05;;;;;;;3.50;1.15;;;;;;;;;;5052633;28;43184;-77
2023/12/22 06:18:33;;;;;;;2.22;0.70;;;;;;;;;;5047955;28;40032;-78
2023/12/22 06:21:01;;;;;;;3.70;0.98;;;;;;;;;;5054518;28;41603;-77
2023/12/22 06:23:30;;;;;;;5.40;0.80;;;;;;;;;;5066685;28;42079;-77
2023/12/22 06:26:03;;;;;;;4.57;1.05;;;;;;;;;;5046792;28;40250;-77
2023/12/22 06:28:30;;;;;;;3.03;1.02;;;;;;;;;;5067073;28;41300;-77
2023/12/22 06:30:58;;;;;;;4.88;1.02;;;;;;;;;;5061288;28;41149;-77
2023/12/22 06:33:25;;;;;;;2.78;0.93;;;;;;;;;;5066033;28;42285;-77
2023/12/22 06:35:54;;;;;;;4.57;1.23;;;;;;;;;;5066443;28;42864;-77
2023/12/22 06:38:22;;;;;;;5.75;1.25;;;;;;;;;;5066695;28;41261;-77
2023/12/22 06:40:50;;;;;;;2.88;0.93;;;;;;;;;;5065642;28;41814;-77
2023/12/22 06:43:19;;;;;;;5.28;1.52;;;;;;;;;;5066718;28;43174;-77
2023/12/22 06:45:47;;;;;;;2.55;0.77;;;;;;;;;;5066488;28;42226;-77
2023/12/22 06:48:15;;;;;;;1.70;0.70;;;;;;;;;;5065758;28;41106;-77
2023/12/22 06:50:44;;;;;;;4.22;1.40;;;;;;;;;;5066804;28;42104;-77
2023/12/22 06:53:13;;;;;;;3.70;0.82;;;;;;;;;;5065974;28;41741;-77
2023/12/22 06:55:52;;;;;;;5.80;1.40;;;;;;;;;;5066621;28;41599;-77
2023/12/22 06:58:25;;;;;;;3.13;1.05;;;;;;;;;;5070150;28;41221;-77
2023/12/22 07:00:53;;;;;;;2.78;0.70;;;;;;;;;;5050845;28;41219;-77
2023/12/22 07:03:21;;;;;;;2.40;1.10;;;;;;;;;;5057773;28;41632;-77
2023/12/22 07:05:50;;;;;;;1.65;0.73;;;;;;;;;;5068982;28;41199;-77
2023/12/22 07:08:18;;;;;;;2.58;0.70;;;;;;;;;;5064914;28;41938;-77
2023/12/22 07:10:46;;;;;;;2.67;1.00;;;;;;;;;;5069169;28;42386;-78
2023/12/22 07:13:14;;;;;;;4.55;0.85;;;;;;;;;;5044213;28;41020;-77
2023/12/22 07:15:44;;;;;;;3.15;0.95;;;;;;;;;;5068648;28;43175;-77
2023/12/22 07:18:13;;;;;;;1.77;0.73;;;;;;;;;;5065225;28;41136;-77
2023/12/22 07:20:41;;;;;;;3.97;1.02;;;;;;;;;;5069568;28;42045;-77
2023/12/22 07:23:10;;;;;;;3.70;0.70;;;;;;;;;;5063522;28;41430;-77
2023/12/22 07:25:39;;;;;;;2.22;0.85;;;;;;;;;;5068360;28;40433;-78
2023/12/22 07:28:07;;;;;;;3.08;0.82;;;;;;;;;;5064541;28;41566;-78
2023/12/22 07:30:35;;;;;;;2.28;0.93;;;;;;;;;;5068576;28;43129;-78
2023/12/22 07:33:05;;;;;;;4.03;1.15;;;;;;;;;;5068930;28;41685;-78
2023/12/22 07:35:33;;;;;;;2.40;0.90;;;;;;;;;;5067344;28;43144;-78
2023/12/22 07:38:02;;;;;;;3.78;1.20;;;;;;;;;;5059940;28;41352;-78
2023/12/22 07:40:31;;;;;;;2.60;0.80;;;;;;;;;;5060055;28;42547;-78
2023/12/22 07:42:59;;;;;;;3.05;0.95;;;;;;;;;;5067516;28;43128;-78
2023/12/22 07:45:28;;;;;;;2.47;0.70;;;;;;;;;;5064948;28;40876;-78
2023/12/22 07:47:56;;;;;;;2.72;0.80;;;;;;;;;;5068744;28;41846;-78
2023/12/22 07:50:27;;;;;;;3.53;0.88;;;;;;;;;;5068855;28;41711;-78
2023/12/22 07:52:55;;;;;;;3.28;0.65;;;;;;;;;;5082831;28;40352;-78
2023/12/22 07:55:23;;;;;;;1.83;0.70;;;;;;;;;;5069517;28;41313;-78
2023/12/22 07:57:51;;;;;;;1.45;0.60;;;;;;;;;;5072418;28;40947;-78
2023/12/22 08:00:19;;;;;;;2.80;0.85;;;;;;;;;;5086875;28;41198;-78
2023/12/22 08:02:47;;;;;;;3.45;0.88;;;;;;;;;;5071171;28;41682;-77
2023/12/22 08:05:15;;;;;;;2.72;0.75;;;;;;;;;;5067116;28;42332;-72
2023/12/22 08:07:44;;;;;;;7.35;0.70;;;;;;;;;;5046072;28;41479;-72
2023/12/22 08:10:12;;;;;;;6.28;1.50;;;;;;;;;;5046727;28;41945;-71
2023/12/22 08:12:40;;;;;;;4.88;1.48;;;;;;;;;;5047396;28;42281;-71
2023/12/22 08:15:10;;;;;;;5.65;1.60;;;;;;;;;;5053285;28;41630;-72
2023/12/22 08:17:46;;;;;;;5.00;1.60;;;;;;;;;;5055383;28;42721;-72
2023/12/22 08:20:18;;;;;;;2.88;1.10;;;;;;;;;;5053423;28;41417;-72
2023/12/22 08:22:54;;;;;;;9.98;2.08;;;;;;;;;;5051991;28;43190;-73
2023/12/22 08:25:24;;;;;;;3.97;1.17;;;;;;;;;;5053896;28;40979;-72
2023/12/22 08:27:52;;;;;;;6.18;1.35;;;;;;;;;;5028154;28;40215;-72
2023/12/22 08:30:20;;;;;;;5.28;1.40;;;;;;;;;;5042481;28;42357;-73
2023/12/22 08:32:48;;;;;;;5.60;1.15;;;;;;;;;;5043524;28;42078;-72
2023/12/22 08:35:16;;;;;;;4.25;1.10;;;;;;;;;;5047913;28;41187;-72
2023/12/22 08:37:44;;;;;;;5.82;1.70;;;;;;;;;;5047661;28;40977;-71
2023/12/22 08:40:14;;;;;;;4.88;1.50;;;;;;;;;;5036620;28;40753;-72
2023/12/22 08:42:42;;;;;;;10.48;2.40;;;;;;;;;;5047063;28;43057;-72
2023/12/22 08:45:10;;;;;;;9.75;1.98;;;;;;;;;;5065471;28;41574;-72
2023/12/22 08:47:38;;;;;;;7.85;1.88;;;;;;;;;;5046712;28;42739;-72
2023/12/22 08:50:07;;;;;;;3.95;1.35;;;;;;;;;;5047875;28;42112;-73
2023/12/22 08:52:36;;;;;;;6.28;1.50;;;;;;;;;;5043235;28;40814;-72
2023/12/22 08:55:05;;;;;;;4.25;1.08;;;;;;;;;;5039125;28;41613;-72
2023/12/22 08:57:34;;;;;;;3.30;0.98;;;;;;;;;;5041557;28;42662;-72
2023/12/22 09:00:03;;;;;;;3.97;1.30;;;;;;;;;;5032207;28;42330;-73
2023/12/22 09:02:31;;;;;;;5.55;1.45;;;;;;;;;;5029509;28;41523;-72
2023/12/22 09:04:59;;;;;;;6.70;1.40;;;;;;;;;;5033821;28;40944;-73
2023/12/22 09:07:27;;;;;;;3.50;1.60;;;;;;;;;;5034878;28;41652;-73
2023/12/22 09:09:55;;;;;;;6.88;1.55;;;;;;;;;;5061020;28;42044;-72
2023/12/22 09:12:23;;;;;;;10.38;2.42;;;;;;;;;;5048253;28;41160;-72
2023/12/22 09:14:53;;;;;;;6.13;1.83;;;;;;;;;;5063910;28;42394;-71
2023/12/22 09:17:21;;;;;;;7.82;1.75;;;;;;;;;;5066926;28;41942;-72
2023/12/22 09:19:50;;;;;;;5.65;1.70;;;;;;;;;;5064947;28;40959;-72
2023/12/22 09:22:18;;;;;;;6.03;1.80;;;;;;;;;;5056855;28;41631;-73
2023/12/22 09:24:46;;;;;;;8.25;1.92;;;;;;;;;;5067896;28;33907;-72
2023/12/22 09:27:14;;;;;;;7.90;1.40;;;;;;;;;;5066842;28;41724;-73
2023/12/22 09:29:42;;;;;;;7.00;1.17;;;;;;;;;;5064201;28;42117;-72
2023/12/22 09:32:11;;;;;;;4.25;1.17;;;;;;;;;;5063830;28;42291;-73
2023/12/22 09:34:40;;;;;;;5.25;1.00;;;;;;;;;;5062895;28;41823;-72
2023/12/22 09:37:08;;;;;;;4.57;1.30;;;;;;;;;;5063410;28;41596;-72
2023/12/22 09:39:37;;;;;;;7.95;2.28;;;;;;;;;;5067462;28;40877;-72
2023/12/22 09:42:06;;;;;;;7.75;1.38;;;;;;;;;;5064468;28;41658;-73
2023/12/22 09:44:34;;;;;;;7.22;2.20;;;;;;;;;;5054118;28;41979;-72
2023/12/22 09:47:04;;;;;;;4.97;1.70;;;;;;;;;;5064605;28;41805;-72
2023/12/22 09:49:33;;;;;;;10.52;2.00;;;;;;;;;;5057429;28;40851;-72
2023/12/22 09:52:02;;;;;;;8.13;1.98;;;;;;;;;;5062861;28;42374;-72
2023/12/22 09:54:31;;;;;;;15.82;2.72;;;;;;;;;;5053573;28;41643;-71
2023/12/22 09:57:00;;;;;;;4.30;1.65;;;;;;;;;;5058797;28;41858;-71
2023/12/22 09:59:45;;;;;;;13.98;2.10;;;;;;;;;;5065611;28;41425;-72
2023/12/22 10:02:13;;;;;;;8.40;1.55;;;;;;;;;;5048955;28;40849;-73
2023/12/22 10:04:43;;;;;;;7.20;2.03;;;;;;;;;;5062505;28;41919;-73
2023/12/22 10:07:11;;;;;;;10.05;1.83;;;;;;;;;;5062178;28;40738;-72
2023/12/22 10:09:38;;;;;;;7.63;1.95;;;;;;;;;;5055186;28;42815;-73
2023/12/22 10:12:07;;;;;;;8.30;1.92;;;;;;;;;;5058554;28;42360;-72
2023/12/22 10:14:35;;;;;;;7.55;1.80;;;;;;;;;;5056790;28;41429;-73
2023/12/22 10:17:07;;;;;;;11.00;1.63;;;;;;;;;;5055391;28;41576;-73
2023/12/22 10:19:35;;;;;;;9.18;2.63;;;;;;;;;;5062408;28;41207;-72
2023/12/22 10:22:05;;;;;;;5.43;1.65;;;;;;;;;;5060486;28;41611;-73
2023/12/22 10:24:39;;;;;;;8.48;2.00;;;;;;;;;;5063731;28;42055;-73
2023/12/22 10:27:07;;;;;;;11.77;2.08;;;;;;;;;;5062230;28;42422;-73
2023/12/22 10:29:35;;;;;;;8.27;2.25;;;;;;;;;;5061898;28;41386;-70
2023/12/22 10:32:04;;;;;;;8.80;1.95;;;;;;;;;;5063242;28;41173;-69
2023/12/22 10:34:35;;;;;;;6.47;1.42;;;;;;;;;;5065001;28;41498;-69
2023/12/22 10:37:05;;;;;;;4.90;2.08;;;;;;;;;;5062955;28;42976;-70
2023/12/22 10:39:33;;;;;;;6.15;1.70;;;;;;;;;;5051106;28;41174;-70
2023/12/22 10:42:01;;;;;;;7.00;1.67;;;;;;;;;;5064875;28;41442;-69
2023/12/22 10:44:29;;;;;;;4.90;1.60;;;;;;;;;;5066024;28;41993;-70
2023/12/22 10:46:57;;;;;;;6.28;1.48;;;;;;;;;;5050917;28;41276;-70
2023/12/22 10:49:25;;;;;;;5.70;1.27;;;;;;;;;;5067686;28;42709;-71
2023/12/22 10:51:53;;;;;;;3.80;1.23;;;;;;;;;;5072123;28;41982;-71
2023/12/22 10:54:22;;;;;;;6.28;1.40;;;;;;;;;;5062638;28;42176;-72
2023/12/22 10:56:50;;;;;;;4.10;1.40;;;;;;;;;;5049594;28;42770;-71
2023/12/22 10:59:19;;;;;;;7.75;1.30;;;;;;;;;;5064068;28;40824;-70
2023/12/22 11:01:47;;;;;;;8.05;1.33;;;;;;;;;;5057731;28;42000;-70
2023/12/22 11:04:19;;;;;;;6.43;1.83;;;;;;;;;;5067617;28;41637;-70
2023/12/22 11:06:47;;;;;;;5.55;0.90;;;;;;;;;;5050576;28;42301;-71
2023/12/22 11:09:16;;;;;;;6.55;1.30;;;;;;;;;;5062974;28;41664;-70
2023/12/22 11:11:46;;;;;;;5.50;1.20;;;;;;;;;;5063708;28;42083;-71
2023/12/22 11:14:14;;;;;;;5.32;1.40;;;;;;;;;;5063461;28;41305;-71
2023/12/22 11:16:46;;;;;;;3.95;1.23;;;;;;;;;;5052556;28;41600;-72
2023/12/22 11:19:15;;;;;;;3.63;1.30;;;;;;;;;;5054410;28;41130;-71
2023/12/22 11:21:43;;;;;;;4.10;0.98;;;;;;;;;;5063015;28;42062;-72
2023/12/22 11:24:12;;;;;;;7.95;1.30;;;;;;;;;;5062699;28;43125;-72
2023/12/22 11:26:39;;;;;;;6.57;0.95;;;;;;;;;;5063323;28;41840;-72
2023/12/22 11:29:09;;;;;;;3.03;0.90;;;;;;;;;;5064488;28;42242;-72
2023/12/22 11:31:37;;;;;;;4.90;1.33;;;;;;;;;;5065706;28;41610;-72
2023/12/22 11:34:05;;;;;;;4.35;1.35;;;;;;;;;;5065524;28;41757;-73
2023/12/22 11:36:42;;;;;;;5.13;1.13;;;;;;;;;;5059769;28;41347;-74
2023/12/22 11:39:10;;;;;;;4.00;1.20;;;;;;;;;;5065514;28;42248;-75
2023/12/22 11:41:38;;;;;;;5.75;1.40;;;;;;;;;;5066503;28;42263;-74
2023/12/22 11:44:06;;;;;;;4.10;1.00;;;;;;;;;;5054974;28;43094;-72
2023/12/22 11:46:36;;;;;;;4.68;1.00;;;;;;;;;;5062413;28;41392;-73
2023/12/22 11:49:04;;;;;;;3.53;1.20;;;;;;;;;;5049271;28;40825;-72
2023/12/22 11:51:34;;;;;;;2.92;0.88;;;;;;;;;;5050065;28;41839;-71
2023/12/22 11:54:02;;;;;;;5.50;1.20;;;;;;;;;;5068328;28;40382;-75
2023/12/22 11:56:30;;;;;;;3.83;0.98;;;;;;;;;;5069100;28;41301;-75
2023/12/22 11:58:59;;;;;;;2.45;0.85;;;;;;;;;;5067950;28;42789;-74
2023/12/22 12:01:28;;;;;;;2.58;0.90;;;;;;;;;;5066862;28;42027;-71
2023/12/22 12:03:58;;;;;;;5.60;1.63;;;;;;;;;;5065491;28;43066;-72
2023/12/22 12:06:33;;;;;;;3.88;1.10;;;;;;;;;;5062645;28;41814;-71
2023/12/22 12:09:04;;;;;;;4.18;1.10;;;;;;;;;;5058931;28;41009;-74
2023/12/22 12:11:47;;;;;;;4.32;1.15;;;;;;;;;;5056786;28;42030;-74
2023/12/22 12:14:15;;;;;;;3.53;1.33;;;;;;;;;;5040954;28;39917;-73
2023/12/22 12:16:43;;;;;;;2.28;0.73;;;;;;;;;;5067939;28;41616;-71
2023/12/22 12:19:12;;;;;;;6.78;1.08;;;;;;;;;;5049822;28;41235;-71
2023/12/22 12:21:40;;;;;;;2.70;0.95;;;;;;;;;;5066839;28;41947;-71
2023/12/22 12:24:09;;;;;;;5.40;1.13;;;;;;;;;;5063283;28;42838;-72
2023/12/22 12:26:37;;;;;;;4.63;1.13;;;;;;;;;;5061058;28;40895;-71
2023/12/22 12:29:05;;;;;;;7.65;1.45;;;;;;;;;;5068168;28;41398;-71
2023/12/22 12:31:36;;;;;;;4.93;1.23;;;;;;;;;;5064416;28;43456;-73
2023/12/22 12:34:04;;;;;;;10.05;1.08;;;;;;;;;;5053755;28;41390;-73
2023/12/22 12:36:34;;;;;;;8.02;1.20;;;;;;;;;;5067194;28;41751;-73
2023/12/22 12:39:07;;;;;;;8.68;1.48;;;;;;;;;;5043268;28;41127;-74
2023/12/22 12:41:43;;;;;;;4.95;0.88;;;;;;;;;;5059801;28;41415;-75
2023/12/22 12:44:11;;;;;;;7.40;1.55;;;;;;;;;;5057893;28;41690;-70
2023/12/22 12:46:39;;;;;;;10.55;1.50;;;;;;;;;;5065370;28;42323;-75
2023/12/22 12:49:08;;;;;;;10.40;1.60;;;;;;;;;;5066841;28;42704;-75
2023/12/22 12:51:38;;;;;;;9.95;2.15;;;;;;;;;;5059845;28;41509;-78
2023/12/22 12:54:06;;;;;;;4.97;1.10;;;;;;;;;;5067163;28;40852;-77
2023/12/22 12:56:38;;;;;;;5.75;1.92;;;;;;;;;;5066706;28;42679;-76
2023/12/22 12:59:07;;;;;;;5.13;1.50;;;;;;;;;;5064882;28;42883;-76
2023/12/22 13:01:38;;;;;;;5.15;1.30;;;;;;;;;;5067492;28;41125;-78
2023/12/22 13:04:06;;;;;;;6.75;1.23;;;;;;;;;;5063942;28;41037;-73
2023/12/22 13:06:35;;;;;;;4.72;1.10;;;;;;;;;;5063672;28;40946;-74
2023/12/22 13:09:04;;;;;;;2.95;1.10;;;;;;;;;;5056390;28;41122;-75
2023/12/22 13:11:32;;;;;;;5.25;1.05;;;;;;;;;;5061028;28;41673;-75
2023/12/22 13:14:00;;;;;;;5.22;1.30;;;;;;;;;;5065506;28;40695;-77
2023/12/22 13:16:29;;;;;;;3.97;1.30;;;;;;;;;;5065041;28;41288;-75
2023/12/22 13:18:58;;;;;;;3.55;1.00;;;;;;;;;;5055285;28;41616;-73
2023/12/22 13:21:26;;;;;;;4.63;1.20;;;;;;;;;;5064724;28;42336;-72
2023/12/22 13:24:11;;;;;;;4.80;1.52;;;;;;;;;;5067252;28;41880;-74
2023/12/22 13:26:38;;;;;;;4.30;1.17;;;;;;;;;;5064619;28;41779;-74
2023/12/22 13:29:06;;;;;;;3.67;1.33;;;;;;;;;;5063774;28;41524;-70
2023/12/22 13:31:34;;;;;;;4.85;1.55;;;;;;;;;;5059324;28;43139;-74
2023/12/22 13:34:03;;;;;;;3.08;1.08;;;;;;;;;;5061011;28;40532;-72
2023/12/22 13:36:34;;;;;;;4.40;1.08;;;;;;;;;;5051950;28;41213;-70
2023/12/22 13:39:04;;;;;;;7.15;1.27;;;;;;;;;;5055972;28;42292;-72
2023/12/22 13:41:34;;;;;;;3.10;1.27;;;;;;;;;;5060242;28;38651;-73
2023/12/22 13:44:05;;;;;;;3.22;1.17;;;;;;;;;;5053874;28;38953;-74
2023/12/22 13:46:35;;;;;;;3.33;1.20;;;;;;;;;;5064465;28;43872;-72
2023/12/22 13:49:03;;;;;;;4.82;1.85;;;;;;;;;;5059459;28;41393;-73
2023/12/22 13:51:39;;;;;;;4.10;1.60;;;;;;;;;;5062239;28;41754;-71
2023/12/22 13:54:07;;;;;;;4.82;1.45;;;;;;;;;;5058878;28;41317;-72
2023/12/22 13:56:36;;;;;;;4.20;1.15;;;;;;;;;;5064412;28;41537;-72
2023/12/22 13:59:04;;;;;;;6.28;1.30;;;;;;;;;;5065331;28;42525;-70
2023/12/22 14:01:33;;;;;;;5.10;1.35;;;;;;;;;;5066402;28;41346;-71
2023/12/22 14:04:01;;;;;;;10.02;1.10;;;;;;;;;;5063501;28;41726;-75
2023/12/22 14:06:29;;;;;;;4.82;1.17;;;;;;;;;;5061994;28;41642;-70
2023/12/22 14:08:57;;;;;;;3.65;1.05;;;;;;;;;;5066236;28;41874;-70
2023/12/22 14:11:25;;;;;;;7.07;1.10;;;;;;;;;;5063881;28;42694;-71
2023/12/22 14:13:58;;;;;;;5.78;1.77;;;;;;;;;;5051488;28;41841;-70
2023/12/22 14:16:26;;;;;;;8.13;1.42;;;;;;;;;;5057628;28;41842;-72
2023/12/22 14:18:54;;;;;;;5.20;1.33;;;;;;;;;;5057568;28;43130;-70
2023/12/22 14:21:23;;;;;;;5.57;1.45;;;;;;;;;;5065526;28;41814;-71
2023/12/22 14:23:51;;;;;;;6.45;1.23;;;;;;;;;;5060393;28;41453;-71
2023/12/22 14:26:19;;;;;;;9.95;1.88;;;;;;;;;;5065645;28;42258;-71
2023/12/22 14:28:50;;;;;;;6.15;1.50;;;;;;;;;;5054492;28;40634;-71
2023/12/22 14:31:21;;;;;;;4.80;1.20;;;;;;;;;;5059835;28;41832;-71
2023/12/22 14:33:49;;;;;;;4.88;1.20;;;;;;;;;;5053779;28;42215;-74
2023/12/22 14:36:17;;;;;;;6.25;1.50;;;;;;;;;;5066212;28;41457;-71
2023/12/22 14:38:45;;;;;;;7.78;1.35;;;;;;;;;;5062198;28;43059;-70
2023/12/22 14:41:13;;;;;;;7.50;1.60;;;;;;;;;;5063849;28;41753;-70
2023/12/22 14:43:41;;;;;;;4.57;1.38;;;;;;;;;;5065631;28;41693;-74
2023/12/22 14:46:09;;;;;;;6.28;1.27;;;;;;;;;;5065514;28;42041;-70
2023/12/22 14:48:38;;;;;;;5.47;1.38;;;;;;;;;;5066562;28;41244;-70
2023/12/22 14:51:07;;;;;;;8.00;1.25;;;;;;;;;;5065017;28;41801;-72